Terminal Aerodrome Forecast
Issued by NWS Twin Cities, MN

Home | Current Version | Previous Version | Graphics & Text | Print | Product List | Glossary On
Versions: 1 2 3 4 5 6 7 8 9 10 11 12 13 14 15 16 17 18 19 20 21 22
000
FTUS43 KMPX 300523
TAFEAU
TAF
KEAU 300523Z 3006/3106 18004KT 6SM BR SKC
     FM300800 19003KT 5SM BR SCT003 BKN008
      TEMPO 3008/3012 2SM BR OVC003
     FM301500 20007KT P6SM BKN012
     FM301700 20010KT P6SM SKC
     FM310000 19005KT P6SM SKC=

USA.gov is the U.S. government's official web portal to all federal, state and local government web resources and services.